sensor_id;sensor_type;location;lat;lon;timestamp;P1;durP1;ratioP1;P2;durP2;ratioP2
53281;SDS011;39167;52.794;6.892;2022-12-24T00:02:07;30.40;;;16.58;;
53281;SDS011;39167;52.794;6.892;2022-12-24T00:04:33;34.58;;;15.63;;
53281;SDS011;39167;52.794;6.892;2022-12-24T00:06:59;37.88;;;17.45;;
53281;SDS011;39167;52.794;6.892;2022-12-24T00:09:24;35.22;;;16.75;;
53281;SDS011;39167;52.794;6.892;2022-12-24T00:11:50;37.75;;;17.85;;
53281;SDS011;39167;52.794;6.892;2022-12-24T00:14:16;45.30;;;18.95;;
53281;SDS011;39167;52.794;6.892;2022-12-24T00:16:41;47.80;;;19.67;;
53281;SDS011;39167;52.794;6.892;2022-12-24T00:19:07;43.42;;;20.50;;
53281;SDS011;39167;52.794;6.892;2022-12-24T00:21:33;39.20;;;18.13;;
53281;SDS011;39167;52.794;6.892;2022-12-24T00:23:58;44.10;;;19.05;;
53281;SDS011;39167;52.794;6.892;2022-12-24T00:26:24;43.35;;;20.13;;
53281;SDS011;39167;52.794;6.892;2022-12-24T00:28:50;40.58;;;19.77;;
53281;SDS011;39167;52.794;6.892;2022-12-24T00:31:16;42.58;;;20.48;;
53281;SDS011;39167;52.794;6.892;2022-12-24T00:33:44;41.17;;;19.77;;
53281;SDS011;39167;52.794;6.892;2022-12-24T00:36:11;41.78;;;20.02;;
53281;SDS011;39167;52.794;6.892;2022-12-24T00:38:37;38.85;;;19.15;;
53281;SDS011;39167;52.794;6.892;2022-12-24T00:41:04;41.30;;;19.05;;
53281;SDS011;39167;52.794;6.892;2022-12-24T00:44:09;35.38;;;19.08;;
53281;SDS011;39167;52.794;6.892;2022-12-24T00:46:34;40.40;;;19.23;;
53281;SDS011;39167;52.794;6.892;2022-12-24T00:49:02;42.58;;;19.02;;
53281;SDS011;39167;52.794;6.892;2022-12-24T00:51:29;43.08;;;20.75;;
53281;SDS011;39167;52.794;6.892;2022-12-24T00:53:55;37.25;;;19.65;;
53281;SDS011;39167;52.794;6.892;2022-12-24T00:56:21;46.17;;;21.08;;
53281;SDS011;39167;52.794;6.892;2022-12-24T00:58:47;42.42;;;21.38;;
53281;SDS011;39167;52.794;6.892;2022-12-24T01:01:13;42.85;;;19.85;;
53281;SDS011;39167;52.794;6.892;2022-12-24T01:03:39;41.35;;;17.50;;
53281;SDS011;39167;52.794;6.892;2022-12-24T01:06:15;37.80;;;17.52;;
53281;SDS011;39167;52.794;6.892;2022-12-24T01:08:42;40.30;;;15.70;;
53281;SDS011;39167;52.794;6.892;2022-12-24T01:11:09;33.47;;;14.90;;
53281;SDS011;39167;52.794;6.892;2022-12-24T01:13:36;33.38;;;14.55;;
53281;SDS011;39167;52.794;6.892;2022-12-24T01:16:02;28.23;;;13.68;;
53281;SDS011;39167;52.794;6.892;2022-12-24T01:18:28;32.88;;;12.93;;
53281;SDS011;39167;52.794;6.892;2022-12-24T01:20:57;22.30;;;11.68;;
53281;SDS011;39167;52.794;6.892;2022-12-24T01:23:25;23.98;;;11.30;;
53281;SDS011;39167;52.794;6.892;2022-12-24T01:25:51;24.92;;;10.65;;
53281;SDS011;39167;52.794;6.892;2022-12-24T01:28:17;21.02;;;10.73;;
53281;SDS011;39167;52.794;6.892;2022-12-24T01:30:43;17.70;;;9.82;;
53281;SDS011;39167;52.794;6.892;2022-12-24T01:33:09;17.77;;;9.63;;
53281;SDS011;39167;52.794;6.892;2022-12-24T01:35:38;14.57;;;9.07;;
53281;SDS011;39167;52.794;6.892;2022-12-24T01:38:07;18.52;;;9.05;;
53281;SDS011;39167;52.794;6.892;2022-12-24T01:40:39;16.13;;;9.60;;
53281;SDS011;39167;52.794;6.892;2022-12-24T01:43:25;19.33;;;10.48;;
53281;SDS011;39167;52.794;6.892;2022-12-24T01:45:54;14.90;;;9.07;;
53281;SDS011;39167;52.794;6.892;2022-12-24T01:48:41;26.90;;;9.93;;
53281;SDS011;39167;52.794;6.892;2022-12-24T01:51:28;19.55;;;9.88;;
53281;SDS011;39167;52.794;6.892;2022-12-24T01:54:04;19.85;;;10.20;;
53281;SDS011;39167;52.794;6.892;2022-12-24T01:56:38;20.48;;;10.88;;
53281;SDS011;39167;52.794;6.892;2022-12-24T01:59:14;23.10;;;11.18;;
53281;SDS011;39167;52.794;6.892;2022-12-24T02:01:43;21.23;;;10.90;;
53281;SDS011;39167;52.794;6.892;2022-12-24T02:04:16;24.70;;;10.27;;
53281;SDS011;39167;52.794;6.892;2022-12-24T02:06:52;20.98;;;10.77;;
53281;SDS011;39167;52.794;6.892;2022-12-24T02:09:18;19.10;;;10.20;;
53281;SDS011;39167;52.794;6.892;2022-12-24T02:11:44;25.80;;;10.50;;
53281;SDS011;39167;52.794;6.892;2022-12-24T02:14:10;21.73;;;9.93;;
53281;SDS011;39167;52.794;6.892;2022-12-24T02:16:44;18.90;;;9.85;;
53281;SDS011;39167;52.794;6.892;2022-12-24T02:22:43;16.67;;;8.82;;
53281;SDS011;39167;52.794;6.892;2022-12-24T02:31:17;14.15;;;5.55;;
53281;SDS011;39167;52.794;6.892;2022-12-24T02:33:54;17.73;;;4.80;;
53281;SDS011;39167;52.794;6.892;2022-12-24T02:36:28;12.38;;;3.60;;
53281;SDS011;39167;52.794;6.892;2022-12-24T02:39:02;10.40;;;2.88;;
53281;SDS011;39167;52.794;6.892;2022-12-24T02:41:34;19.08;;;3.80;;
53281;SDS011;39167;52.794;6.892;2022-12-24T02:44:23;14.93;;;4.13;;
53281;SDS011;39167;52.794;6.892;2022-12-24T02:46:52;23.88;;;5.10;;
53281;SDS011;39167;52.794;6.892;2022-12-24T02:49:19;21.80;;;5.32;;
53281;SDS011;39167;52.794;6.892;2022-12-24T02:51:44;33.78;;;6.75;;
53281;SDS011;39167;52.794;6.892;2022-12-24T02:54:10;34.70;;;7.28;;
53281;SDS011;39167;52.794;6.892;2022-12-24T03:08:04;43.60;;;6.13;;
53281;SDS011;39167;52.794;6.892;2022-12-24T03:10:56;35.17;;;5.95;;
53281;SDS011;39167;52.794;6.892;2022-12-24T03:13:26;35.55;;;6.55;;
53281;SDS011;39167;52.794;6.892;2022-12-24T03:15:53;39.30;;;6.63;;
53281;SDS011;39167;52.794;6.892;2022-12-24T03:18:20;32.63;;;5.50;;
53281;SDS011;39167;52.794;6.892;2022-12-24T03:20:57;32.63;;;5.40;;
53281;SDS011;39167;52.794;6.892;2022-12-24T03:23:27;38.72;;;6.30;;
53281;SDS011;39167;52.794;6.892;2022-12-24T03:25:53;34.72;;;5.43;;
53281;SDS011;39167;52.794;6.892;2022-12-24T03:28:19;30.63;;;5.00;;
53281;SDS011;39167;52.794;6.892;2022-12-24T03:30:50;34.83;;;6.57;;
53281;SDS011;39167;52.794;6.892;2022-12-24T03:33:16;25.52;;;4.72;;
53281;SDS011;39167;52.794;6.892;2022-12-24T03:35:43;22.70;;;3.95;;
53281;SDS011;39167;52.794;6.892;2022-12-24T03:38:09;33.78;;;4.97;;
53281;SDS011;39167;52.794;6.892;2022-12-24T03:40:34;28.92;;;4.82;;
53281;SDS011;39167;52.794;6.892;2022-12-24T03:43:00;27.48;;;4.60;;
53281;SDS011;39167;52.794;6.892;2022-12-24T03:45:26;26.45;;;4.40;;
53281;SDS011;39167;52.794;6.892;2022-12-24T03:47:52;26.33;;;3.95;;
53281;SDS011;39167;52.794;6.892;2022-12-24T03:50:17;26.83;;;4.45;;
53281;SDS011;39167;52.794;6.892;2022-12-24T03:52:43;29.30;;;5.03;;
53281;SDS011;39167;52.794;6.892;2022-12-24T03:55:09;28.40;;;4.38;;
53281;SDS011;39167;52.794;6.892;2022-12-24T03:57:34;32.42;;;5.10;;
53281;SDS011;39167;52.794;6.892;2022-12-24T04:00:00;36.38;;;5.78;;
53281;SDS011;39167;52.794;6.892;2022-12-24T04:02:27;31.13;;;5.15;;
53281;SDS011;39167;52.794;6.892;2022-12-24T04:04:53;32.92;;;5.32;;
53281;SDS011;39167;52.794;6.892;2022-12-24T04:07:18;35.78;;;5.10;;
53281;SDS011;39167;52.794;6.892;2022-12-24T04:09:44;29.42;;;4.93;;
53281;SDS011;39167;52.794;6.892;2022-12-24T04:12:10;34.03;;;5.13;;
53281;SDS011;39167;52.794;6.892;2022-12-24T04:14:35;32.55;;;4.97;;
53281;SDS011;39167;52.794;6.892;2022-12-24T04:17:01;32.28;;;6.28;;
53281;SDS011;39167;52.794;6.892;2022-12-24T04:19:27;30.02;;;5.97;;
53281;SDS011;39167;52.794;6.892;2022-12-24T04:21:52;31.33;;;5.32;;
53281;SDS011;39167;52.794;6.892;2022-12-24T04:24:18;33.47;;;5.80;;
53281;SDS011;39167;52.794;6.892;2022-12-24T04:26:44;34.78;;;5.57;;
53281;SDS011;39167;52.794;6.892;2022-12-24T04:29:09;59.25;;;7.75;;
53281;SDS011;39167;52.794;6.892;2022-12-24T04:31:35;31.98;;;6.65;;
53281;SDS011;39167;52.794;6.892;2022-12-24T04:34:01;33.88;;;5.53;;
53281;SDS011;39167;52.794;6.892;2022-12-24T04:36:27;41.95;;;6.75;;
53281;SDS011;39167;52.794;6.892;2022-12-24T04:38:52;33.80;;;5.55;;
53281;SDS011;39167;52.794;6.892;2022-12-24T04:41:19;42.90;;;7.05;;
53281;SDS011;39167;52.794;6.892;2022-12-24T04:43:46;34.45;;;5.78;;
53281;SDS011;39167;52.794;6.892;2022-12-24T04:46:16;36.40;;;5.47;;
53281;SDS011;39167;52.794;6.892;2022-12-24T04:48:44;35.95;;;6.47;;
53281;SDS011;39167;52.794;6.892;2022-12-24T04:51:12;30.42;;;5.25;;
53281;SDS011;39167;52.794;6.892;2022-12-24T04:53:39;35.53;;;4.65;;
53281;SDS011;39167;52.794;6.892;2022-12-24T04:56:12;47.70;;;5.20;;
53281;SDS011;39167;52.794;6.892;2022-12-24T04:58:45;35.17;;;6.30;;
53281;SDS011;39167;52.794;6.892;2022-12-24T05:01:12;42.88;;;6.05;;
53281;SDS011;39167;52.794;6.892;2022-12-24T05:03:44;44.83;;;6.05;;
53281;SDS011;39167;52.794;6.892;2022-12-24T05:06:11;37.83;;;5.97;;
53281;SDS011;39167;52.794;6.892;2022-12-24T05:08:38;34.33;;;6.20;;
53281;SDS011;39167;52.794;6.892;2022-12-24T05:11:04;42.42;;;6.50;;
53281;SDS011;39167;52.794;6.892;2022-12-24T05:13:30;36.03;;;6.38;;
53281;SDS011;39167;52.794;6.892;2022-12-24T05:15:56;39.78;;;6.03;;
53281;SDS011;39167;52.794;6.892;2022-12-24T05:18:22;32.17;;;6.30;;
53281;SDS011;39167;52.794;6.892;2022-12-24T05:20:48;38.33;;;6.72;;
53281;SDS011;39167;52.794;6.892;2022-12-24T05:23:15;35.35;;;6.90;;
53281;SDS011;39167;52.794;6.892;2022-12-24T05:26:04;31.35;;;5.80;;
53281;SDS011;39167;52.794;6.892;2022-12-24T05:28:52;44.58;;;6.38;;
53281;SDS011;39167;52.794;6.892;2022-12-24T05:31:19;34.08;;;6.38;;
53281;SDS011;39167;52.794;6.892;2022-12-24T05:33:46;40.42;;;7.10;;
53281;SDS011;39167;52.794;6.892;2022-12-24T05:36:12;39.55;;;5.82;;
53281;SDS011;39167;52.794;6.892;2022-12-24T05:38:39;34.85;;;6.93;;
53281;SDS011;39167;52.794;6.892;2022-12-24T05:41:05;38.42;;;6.15;;
53281;SDS011;39167;52.794;6.892;2022-12-24T05:43:33;41.45;;;6.88;;
53281;SDS011;39167;52.794;6.892;2022-12-24T05:46:00;35.75;;;7.30;;
53281;SDS011;39167;52.794;6.892;2022-12-24T05:48:28;38.13;;;6.28;;
53281;SDS011;39167;52.794;6.892;2022-12-24T05:50:54;38.35;;;6.57;;
53281;SDS011;39167;52.794;6.892;2022-12-24T05:53:20;37.08;;;7.07;;
53281;SDS011;39167;52.794;6.892;2022-12-24T05:55:46;41.17;;;7.03;;
53281;SDS011;39167;52.794;6.892;2022-12-24T05:58:12;42.70;;;7.03;;
53281;SDS011;39167;52.794;6.892;2022-12-24T06:00:38;47.22;;;7.82;;
53281;SDS011;39167;52.794;6.892;2022-12-24T06:03:03;43.50;;;7.38;;
53281;SDS011;39167;52.794;6.892;2022-12-24T06:05:29;39.60;;;7.05;;
53281;SDS011;39167;52.794;6.892;2022-12-24T06:07:55;42.03;;;7.32;;
53281;SDS011;39167;52.794;6.892;2022-12-24T06:10:21;38.78;;;6.82;;
53281;SDS011;39167;52.794;6.892;2022-12-24T06:12:46;37.00;;;6.30;;
53281;SDS011;39167;52.794;6.892;2022-12-24T06:15:12;34.08;;;5.88;;
53281;SDS011;39167;52.794;6.892;2022-12-24T06:17:38;33.65;;;7.38;;
53281;SDS011;39167;52.794;6.892;2022-12-24T06:20:04;36.35;;;6.78;;
53281;SDS011;39167;52.794;6.892;2022-12-24T06:22:30;36.58;;;6.35;;
53281;SDS011;39167;52.794;6.892;2022-12-24T06:24:56;47.28;;;7.13;;
53281;SDS011;39167;52.794;6.892;2022-12-24T06:27:22;46.85;;;7.05;;
53281;SDS011;39167;52.794;6.892;2022-12-24T06:29:47;27.33;;;6.70;;
53281;SDS011;39167;52.794;6.892;2022-12-24T06:32:13;46.35;;;6.47;;
53281;SDS011;39167;52.794;6.892;2022-12-24T06:34:39;30.98;;;5.25;;
53281;SDS011;39167;52.794;6.892;2022-12-24T06:37:04;43.33;;;6.15;;
53281;SDS011;39167;52.794;6.892;2022-12-24T06:39:30;33.28;;;6.45;;
53281;SDS011;39167;52.794;6.892;2022-12-24T06:41:56;31.98;;;5.85;;
53281;SDS011;39167;52.794;6.892;2022-12-24T06:44:22;29.42;;;5.93;;
53281;SDS011;39167;52.794;6.892;2022-12-24T06:46:48;37.58;;;6.13;;
53281;SDS011;39167;52.794;6.892;2022-12-24T06:49:13;34.95;;;5.35;;
53281;SDS011;39167;52.794;6.892;2022-12-24T06:51:39;40.40;;;6.80;;
53281;SDS011;39167;52.794;6.892;2022-12-24T06:54:05;40.15;;;5.68;;
53281;SDS011;39167;52.794;6.892;2022-12-24T06:56:31;35.30;;;5.75;;
53281;SDS011;39167;52.794;6.892;2022-12-24T06:58:57;28.02;;;5.20;;
53281;SDS011;39167;52.794;6.892;2022-12-24T07:01:22;28.55;;;5.30;;
53281;SDS011;39167;52.794;6.892;2022-12-24T07:03:48;29.23;;;5.55;;
53281;SDS011;39167;52.794;6.892;2022-12-24T07:06:16;36.10;;;5.47;;
53281;SDS011;39167;52.794;6.892;2022-12-24T07:08:44;32.50;;;5.93;;
53281;SDS011;39167;52.794;6.892;2022-12-24T07:11:09;33.15;;;5.53;;
53281;SDS011;39167;52.794;6.892;2022-12-24T07:13:35;47.00;;;6.80;;
53281;SDS011;39167;52.794;6.892;2022-12-24T07:16:01;33.40;;;5.65;;
53281;SDS011;39167;52.794;6.892;2022-12-24T07:18:28;36.60;;;6.47;;
53281;SDS011;39167;52.794;6.892;2022-12-24T07:20:54;39.25;;;6.10;;
53281;SDS011;39167;52.794;6.892;2022-12-24T07:23:20;39.38;;;6.00;;
53281;SDS011;39167;52.794;6.892;2022-12-24T07:25:46;30.17;;;5.57;;
53281;SDS011;39167;52.794;6.892;2022-12-24T07:28:12;33.17;;;5.82;;
53281;SDS011;39167;52.794;6.892;2022-12-24T07:30:37;34.30;;;5.78;;
53281;SDS011;39167;52.794;6.892;2022-12-24T07:33:03;32.85;;;6.25;;
53281;SDS011;39167;52.794;6.892;2022-12-24T07:35:29;26.20;;;5.65;;
53281;SDS011;39167;52.794;6.892;2022-12-24T07:37:54;32.05;;;5.95;;
53281;SDS011;39167;52.794;6.892;2022-12-24T07:40:20;42.65;;;7.57;;
53281;SDS011;39167;52.794;6.892;2022-12-24T07:42:46;34.95;;;5.68;;
53281;SDS011;39167;52.794;6.892;2022-12-24T07:45:11;28.13;;;5.63;;
53281;SDS011;39167;52.794;6.892;2022-12-24T07:47:37;28.60;;;5.80;;
53281;SDS011;39167;52.794;6.892;2022-12-24T07:50:03;33.58;;;5.60;;
53281;SDS011;39167;52.794;6.892;2022-12-24T07:52:29;39.25;;;5.88;;
53281;SDS011;39167;52.794;6.892;2022-12-24T07:54:55;32.45;;;5.18;;
53281;SDS011;39167;52.794;6.892;2022-12-24T07:57:21;27.45;;;5.20;;
53281;SDS011;39167;52.794;6.892;2022-12-24T07:59:47;31.10;;;5.57;;
53281;SDS011;39167;52.794;6.892;2022-12-24T08:02:12;32.10;;;5.35;;
53281;SDS011;39167;52.794;6.892;2022-12-24T08:04:38;37.67;;;5.72;;
53281;SDS011;39167;52.794;6.892;2022-12-24T08:07:04;35.47;;;5.60;;
53281;SDS011;39167;52.794;6.892;2022-12-24T08:09:35;32.00;;;6.25;;
53281;SDS011;39167;52.794;6.892;2022-12-24T08:12:01;33.63;;;6.57;;
53281;SDS011;39167;52.794;6.892;2022-12-24T08:14:28;44.63;;;5.85;;
53281;SDS011;39167;52.794;6.892;2022-12-24T08:16:54;33.08;;;5.97;;
53281;SDS011;39167;52.794;6.892;2022-12-24T08:19:20;39.28;;;6.18;;
53281;SDS011;39167;52.794;6.892;2022-12-24T08:21:46;35.60;;;5.38;;
53281;SDS011;39167;52.794;6.892;2022-12-24T08:24:12;36.92;;;5.70;;
53281;SDS011;39167;52.794;6.892;2022-12-24T08:26:38;35.90;;;6.40;;
53281;SDS011;39167;52.794;6.892;2022-12-24T08:29:04;33.58;;;6.43;;
53281;SDS011;39167;52.794;6.892;2022-12-24T08:31:30;49.13;;;7.10;;
53281;SDS011;39167;52.794;6.892;2022-12-24T08:34:01;40.53;;;8.68;;
53281;SDS011;39167;52.794;6.892;2022-12-24T08:36:28;40.28;;;7.88;;
53281;SDS011;39167;52.794;6.892;2022-12-24T08:38:53;35.00;;;7.03;;
53281;SDS011;39167;52.794;6.892;2022-12-24T08:41:19;37.88;;;6.63;;
53281;SDS011;39167;52.794;6.892;2022-12-24T08:43:45;28.98;;;6.90;;
53281;SDS011;39167;52.794;6.892;2022-12-24T08:46:10;33.88;;;6.78;;
53281;SDS011;39167;52.794;6.892;2022-12-24T08:48:36;40.85;;;7.10;;
53281;SDS011;39167;52.794;6.892;2022-12-24T08:51:08;36.92;;;7.00;;
53281;SDS011;39167;52.794;6.892;2022-12-24T08:53:35;36.15;;;5.97;;
53281;SDS011;39167;52.794;6.892;2022-12-24T08:56:06;35.58;;;7.30;;
53281;SDS011;39167;52.794;6.892;2022-12-24T08:58:33;41.92;;;6.95;;
53281;SDS011;39167;52.794;6.892;2022-12-24T09:00:59;44.75;;;6.97;;
53281;SDS011;39167;52.794;6.892;2022-12-24T09:03:33;36.15;;;7.45;;
53281;SDS011;39167;52.794;6.892;2022-12-24T09:06:01;37.75;;;7.78;;
53281;SDS011;39167;52.794;6.892;2022-12-24T09:08:28;39.67;;;6.90;;
53281;SDS011;39167;52.794;6.892;2022-12-24T09:10:53;46.17;;;7.72;;
53281;SDS011;39167;52.794;6.892;2022-12-24T09:13:19;37.80;;;7.63;;
53281;SDS011;39167;52.794;6.892;2022-12-24T09:15:52;44.95;;;7.90;;
53281;SDS011;39167;52.794;6.892;2022-12-24T09:18:18;47.03;;;8.13;;
53281;SDS011;39167;52.794;6.892;2022-12-24T09:20:44;39.72;;;8.02;;
53281;SDS011;39167;52.794;6.892;2022-12-24T09:23:09;41.60;;;8.90;;
53281;SDS011;39167;52.794;6.892;2022-12-24T09:25:39;42.60;;;7.72;;
53281;SDS011;39167;52.794;6.892;2022-12-24T09:28:08;38.92;;;7.68;;
53281;SDS011;39167;52.794;6.892;2022-12-24T09:30:35;32.13;;;7.53;;
53281;SDS011;39167;52.794;6.892;2022-12-24T09:33:01;39.85;;;8.13;;
53281;SDS011;39167;52.794;6.892;2022-12-24T09:35:27;49.05;;;8.70;;
53281;SDS011;39167;52.794;6.892;2022-12-24T09:37:52;41.25;;;6.93;;
53281;SDS011;39167;52.794;6.892;2022-12-24T09:40:37;38.55;;;8.32;;
53281;SDS011;39167;52.794;6.892;2022-12-24T09:43:12;36.70;;;7.80;;
53281;SDS011;39167;52.794;6.892;2022-12-24T09:45:45;38.35;;;7.60;;
53281;SDS011;39167;52.794;6.892;2022-12-24T09:48:35;39.97;;;8.20;;
53281;SDS011;39167;52.794;6.892;2022-12-24T09:51:11;36.67;;;7.65;;
53281;SDS011;39167;52.794;6.892;2022-12-24T09:53:48;37.10;;;7.70;;
53281;SDS011;39167;52.794;6.892;2022-12-24T09:56:20;38.63;;;7.22;;
53281;SDS011;39167;52.794;6.892;2022-12-24T09:58:51;32.15;;;6.72;;
53281;SDS011;39167;52.794;6.892;2022-12-24T10:01:21;44.78;;;7.75;;
53281;SDS011;39167;52.794;6.892;2022-12-24T10:03:47;36.75;;;6.93;;
53281;SDS011;39167;52.794;6.892;2022-12-24T10:06:17;45.15;;;7.95;;
53281;SDS011;39167;52.794;6.892;2022-12-24T10:11:35;42.22;;;7.97;;
53281;SDS011;39167;52.794;6.892;2022-12-24T10:14:29;37.42;;;6.97;;
53281;SDS011;39167;52.794;6.892;2022-12-24T10:19:54;32.10;;;5.93;;
53281;SDS011;39167;52.794;6.892;2022-12-24T10:28:31;27.17;;;5.00;;
53281;SDS011;39167;52.794;6.892;2022-12-24T10:31:06;35.78;;;6.13;;
53281;SDS011;39167;52.794;6.892;2022-12-24T10:36:14;25.23;;;5.80;;
53281;SDS011;39167;52.794;6.892;2022-12-24T10:38:42;29.85;;;5.55;;
53281;SDS011;39167;52.794;6.892;2022-12-24T10:41:09;27.63;;;5.45;;
53281;SDS011;39167;52.794;6.892;2022-12-24T10:43:39;35.88;;;6.07;;
53281;SDS011;39167;52.794;6.892;2022-12-24T10:46:17;27.98;;;4.70;;
53281;SDS011;39167;52.794;6.892;2022-12-24T10:49:04;27.42;;;4.93;;
53281;SDS011;39167;52.794;6.892;2022-12-24T10:52:09;31.75;;;5.60;;
53281;SDS011;39167;52.794;6.892;2022-12-24T10:57:30;28.02;;;5.20;;
53281;SDS011;39167;52.794;6.892;2022-12-24T10:59:56;28.45;;;5.88;;
53281;SDS011;39167;52.794;6.892;2022-12-24T11:02:35;23.48;;;5.45;;
53281;SDS011;39167;52.794;6.892;2022-12-24T11:05:04;31.80;;;5.50;;
53281;SDS011;39167;52.794;6.892;2022-12-24T11:07:31;35.58;;;5.82;;
53281;SDS011;39167;52.794;6.892;2022-12-24T11:09:59;33.83;;;6.30;;
53281;SDS011;39167;52.794;6.892;2022-12-24T11:12:29;34.75;;;5.68;;
53281;SDS011;39167;52.794;6.892;2022-12-24T11:15:01;30.53;;;6.40;;
53281;SDS011;39167;52.794;6.892;2022-12-24T11:17:30;34.90;;;6.72;;
53281;SDS011;39167;52.794;6.892;2022-12-24T11:19:58;34.35;;;6.55;;
53281;SDS011;39167;52.794;6.892;2022-12-24T11:22:28;36.10;;;7.20;;
53281;SDS011;39167;52.794;6.892;2022-12-24T11:25:01;39.03;;;7.13;;
53281;SDS011;39167;52.794;6.892;2022-12-24T11:30:37;45.28;;;7.93;;
53281;SDS011;39167;52.794;6.892;2022-12-24T11:35:24;36.80;;;6.95;;
53281;SDS011;39167;52.794;6.892;2022-12-24T11:40:35;38.88;;;8.80;;
53281;SDS011;39167;52.794;6.892;2022-12-24T11:43:10;47.50;;;8.10;;
53281;SDS011;39167;52.794;6.892;2022-12-24T11:45:39;45.80;;;8.85;;
53281;SDS011;39167;52.794;6.892;2022-12-24T11:48:23;41.50;;;7.50;;
53281;SDS011;39167;52.794;6.892;2022-12-24T11:51:34;40.08;;;7.78;;
53281;SDS011;39167;52.794;6.892;2022-12-24T11:53:55;39.08;;;7.35;;
53281;SDS011;39167;52.794;6.892;2022-12-24T11:59:11;38.38;;;7.63;;
53281;SDS011;39167;52.794;6.892;2022-12-24T12:01:51;35.95;;;7.78;;
53281;SDS011;39167;52.794;6.892;2022-12-24T12:04:28;46.00;;;7.72;;
53281;SDS011;39167;52.794;6.892;2022-12-24T12:06:58;36.90;;;6.60;;
53281;SDS011;39167;52.794;6.892;2022-12-24T12:09:32;39.15;;;6.25;;
53281;SDS011;39167;52.794;6.892;2022-12-24T12:12:06;42.25;;;6.30;;
53281;SDS011;39167;52.794;6.892;2022-12-24T12:14:40;35.80;;;6.30;;
53281;SDS011;39167;52.794;6.892;2022-12-24T12:17:23;30.13;;;6.43;;
53281;SDS011;39167;52.794;6.892;2022-12-24T12:20:10;32.70;;;6.10;;
53281;SDS011;39167;52.794;6.892;2022-12-24T12:25:21;35.05;;;6.50;;
53281;SDS011;39167;52.794;6.892;2022-12-24T12:27:55;32.45;;;5.32;;
53281;SDS011;39167;52.794;6.892;2022-12-24T12:30:22;28.65;;;5.28;;
53281;SDS011;39167;52.794;6.892;2022-12-24T12:40:49;31.33;;;5.85;;
53281;SDS011;39167;52.794;6.892;2022-12-24T12:46:38;28.88;;;5.80;;
53281;SDS011;39167;52.794;6.892;2022-12-24T12:57:40;32.50;;;4.72;;
53281;SDS011;39167;52.794;6.892;2022-12-24T13:00:12;25.25;;;6.60;;
53281;SDS011;39167;52.794;6.892;2022-12-24T13:06:04;26.05;;;5.95;;
53281;SDS011;39167;52.794;6.892;2022-12-24T13:11:52;28.60;;;6.43;;
53281;SDS011;39167;52.794;6.892;2022-12-24T13:17:44;27.63;;;5.60;;
53281;SDS011;39167;52.794;6.892;2022-12-24T13:20:24;35.65;;;5.97;;
53281;SDS011;39167;52.794;6.892;2022-12-24T13:25:25;19.42;;;4.35;;
53281;SDS011;39167;52.794;6.892;2022-12-24T13:30:44;25.40;;;5.10;;
53281;SDS011;39167;52.794;6.892;2022-12-24T13:33:13;25.75;;;4.65;;
53281;SDS011;39167;52.794;6.892;2022-12-24T13:36:02;24.17;;;4.20;;
53281;SDS011;39167;52.794;6.892;2022-12-24T13:38:30;20.77;;;4.35;;
53281;SDS011;39167;52.794;6.892;2022-12-24T13:44:01;20.17;;;3.85;;
53281;SDS011;39167;52.794;6.892;2022-12-24T13:46:51;25.92;;;4.40;;
53281;SDS011;39167;52.794;6.892;2022-12-24T13:49:24;20.60;;;3.63;;
53281;SDS011;39167;52.794;6.892;2022-12-24T13:54:35;25.88;;;4.18;;
53281;SDS011;39167;52.794;6.892;2022-12-24T13:57:25;18.52;;;4.07;;
53281;SDS011;39167;52.794;6.892;2022-12-24T14:00:00;19.83;;;3.53;;
53281;SDS011;39167;52.794;6.892;2022-12-24T14:02:49;21.90;;;3.80;;
53281;SDS011;39167;52.794;6.892;2022-12-24T14:08:24;16.65;;;4.28;;
53281;SDS011;39167;52.794;6.892;2022-12-24T14:16:07;17.15;;;3.25;;
53281;SDS011;39167;52.794;6.892;2022-12-24T14:18:42;18.67;;;3.90;;
53281;SDS011;39167;52.794;6.892;2022-12-24T14:24:24;15.20;;;2.88;;
53281;SDS011;39167;52.794;6.892;2022-12-24T14:27:17;21.70;;;4.13;;
53281;SDS011;39167;52.794;6.892;2022-12-24T14:30:00;18.75;;;3.22;;
53281;SDS011;39167;52.794;6.892;2022-12-24T14:32:36;21.13;;;4.57;;
53281;SDS011;39167;52.794;6.892;2022-12-24T14:35:04;21.05;;;3.33;;
53281;SDS011;39167;52.794;6.892;2022-12-24T14:37:30;15.15;;;3.13;;
53281;SDS011;39167;52.794;6.892;2022-12-24T14:39:56;20.95;;;3.42;;
53281;SDS011;39167;52.794;6.892;2022-12-24T14:42:33;14.38;;;3.53;;
53281;SDS011;39167;52.794;6.892;2022-12-24T14:50:58;14.55;;;3.15;;
53281;SDS011;39167;52.794;6.892;2022-12-24T14:56:33;24.05;;;3.55;;
53281;SDS011;39167;52.794;6.892;2022-12-24T14:58:59;19.40;;;3.42;;
53281;SDS011;39167;52.794;6.892;2022-12-24T15:01:37;16.77;;;3.20;;
53281;SDS011;39167;52.794;6.892;2022-12-24T15:09:17;17.92;;;3.45;;
53281;SDS011;39167;52.794;6.892;2022-12-24T15:11:45;26.50;;;4.25;;
53281;SDS011;39167;52.794;6.892;2022-12-24T15:14:13;14.52;;;3.85;;
53281;SDS011;39167;52.794;6.892;2022-12-24T15:16:40;19.98;;;3.65;;
53281;SDS011;39167;52.794;6.892;2022-12-24T15:19:19;24.13;;;3.63;;
53281;SDS011;39167;52.794;6.892;2022-12-24T15:21:49;31.10;;;4.70;;
53281;SDS011;39167;52.794;6.892;2022-12-24T15:26:52;23.60;;;3.80;;
53281;SDS011;39167;52.794;6.892;2022-12-24T15:29:21;16.67;;;4.30;;
53281;SDS011;39167;52.794;6.892;2022-12-24T15:31:54;15.40;;;4.22;;
53281;SDS011;39167;52.794;6.892;2022-12-24T15:34:39;23.70;;;4.28;;
53281;SDS011;39167;52.794;6.892;2022-12-24T15:37:11;19.13;;;3.45;;
53281;SDS011;39167;52.794;6.892;2022-12-24T15:39:57;24.83;;;4.28;;
53281;SDS011;39167;52.794;6.892;2022-12-24T15:42:28;21.48;;;3.58;;
53281;SDS011;39167;52.794;6.892;2022-12-24T15:44:58;22.05;;;3.88;;
53281;SDS011;39167;52.794;6.892;2022-12-24T15:47:32;26.45;;;4.47;;
53281;SDS011;39167;52.794;6.892;2022-12-24T15:52:30;24.38;;;3.90;;
53281;SDS011;39167;52.794;6.892;2022-12-24T15:54:56;17.80;;;3.40;;
53281;SDS011;39167;52.794;6.892;2022-12-24T15:57:28;30.20;;;4.45;;
53281;SDS011;39167;52.794;6.892;2022-12-24T15:59:57;19.88;;;3.95;;
53281;SDS011;39167;52.794;6.892;2022-12-24T16:10:34;24.67;;;3.85;;
53281;SDS011;39167;52.794;6.892;2022-12-24T16:13:09;17.08;;;3.60;;
53281;SDS011;39167;52.794;6.892;2022-12-24T16:16:01;17.50;;;3.80;;
53281;SDS011;39167;52.794;6.892;2022-12-24T16:18:33;18.85;;;3.40;;
53281;SDS011;39167;52.794;6.892;2022-12-24T16:21:00;26.00;;;4.35;;
53281;SDS011;39167;52.794;6.892;2022-12-24T16:23:30;24.15;;;3.85;;
53281;SDS011;39167;52.794;6.892;2022-12-24T16:26:09;21.40;;;4.13;;
53281;SDS011;39167;52.794;6.892;2022-12-24T16:28:35;19.52;;;3.95;;
53281;SDS011;39167;52.794;6.892;2022-12-24T16:31:00;19.05;;;3.15;;
53281;SDS011;39167;52.794;6.892;2022-12-24T16:33:26;17.77;;;3.80;;
53281;SDS011;39167;52.794;6.892;2022-12-24T16:35:53;18.52;;;4.07;;
53281;SDS011;39167;52.794;6.892;2022-12-24T16:38:19;21.88;;;3.67;;
53281;SDS011;39167;52.794;6.892;2022-12-24T16:40:45;20.83;;;4.13;;
53281;SDS011;39167;52.794;6.892;2022-12-24T16:43:11;17.98;;;3.72;;
53281;SDS011;39167;52.794;6.892;2022-12-24T16:46:00;19.27;;;4.22;;
53281;SDS011;39167;52.794;6.892;2022-12-24T16:48:27;21.90;;;3.60;;
53281;SDS011;39167;52.794;6.892;2022-12-24T16:50:54;20.23;;;3.92;;
53281;SDS011;39167;52.794;6.892;2022-12-24T16:53:20;18.27;;;4.22;;
53281;SDS011;39167;52.794;6.892;2022-12-24T16:55:46;23.42;;;4.97;;
53281;SDS011;39167;52.794;6.892;2022-12-24T16:58:15;21.42;;;5.00;;
53281;SDS011;39167;52.794;6.892;2022-12-24T17:00:42;18.92;;;4.63;;